Time;durP1;ratioP1;P1;durP2;ratioP2;P2;SDS_P1;SDS_P2;PMS_P1;PMS_P2;Temp;Humidity;BMP_temperature;BMP_pressure;BME280_temperature;BME280_humidity;BME280_pressure;Samples;Min_cycle;Max_cycle;Signal;HPM_P1;HPM_P2
2022/11/02 00:01:57;;;;;;;6.80;1.35;;;14.00;99.90;;;;;;4104574;28;20202;-92
2022/11/02 00:03:57;;;;;;;8.77;1.02;;;13.90;99.90;;;;;;4104791;28;20179;-93
2022/11/02 00:05:58;;;;;;;8.40;0.90;;;13.90;99.90;;;;;;4104089;28;20580;-91
2022/11/02 00:07:59;;;;;;;10.52;1.30;;;13.90;99.90;;;;;;4104749;28;20171;-92
2022/11/02 00:09:59;;;;;;;8.73;1.38;;;13.90;99.90;;;;;;4087773;29;20891;-94
2022/11/02 00:12:00;;;;;;;11.35;1.63;;;13.90;99.90;;;;;;4102691;28;20281;-91
2022/11/02 00:14:01;;;;;;;9.18;0.98;;;13.90;99.90;;;;;;4087438;28;20179;-91
2022/11/02 00:16:10;;;;;;;8.75;1.20;;;13.80;99.90;;;;;;4087299;28;20211;-90
2022/11/02 00:18:12;;;;;;;10.32;1.27;;;13.80;99.90;;;;;;4118267;28;20300;-90
2022/11/02 00:20:15;;;;;;;10.00;1.10;;;13.90;99.90;;;;;;4120825;28;20174;-91
2022/11/02 00:22:16;;;;;;;11.82;1.00;;;13.90;99.90;;;;;;4088029;29;20223;-92
2022/11/02 00:24:18;;;;;;;9.98;1.02;;;13.80;99.90;;;;;;4088337;28;20179;-91
2022/11/02 00:26:19;;;;;;;8.60;1.30;;;13.80;99.90;;;;;;4105117;28;20171;-91
2022/11/02 00:28:20;;;;;;;10.50;1.30;;;13.90;99.90;;;;;;4102988;28;20225;-91
2022/11/02 00:30:21;;;;;;;10.10;1.27;;;13.90;99.90;;;;;;4087566;29;20186;-92
2022/11/02 00:32:21;;;;;;;8.00;1.20;;;13.80;99.90;;;;;;4103548;28;20190;-91
2022/11/02 00:34:22;;;;;;;5.70;1.08;;;13.90;99.90;;;;;;4087007;28;20215;-92
2022/11/02 00:36:24;;;;;;;8.30;1.20;;;13.80;99.90;;;;;;4087792;28;20172;-90
2022/11/02 00:38:25;;;;;;;8.32;1.13;;;13.80;99.90;;;;;;4102864;28;20699;-91
2022/11/02 00:40:26;;;;;;;8.05;1.38;;;13.90;99.90;;;;;;4103270;28;20179;-93
2022/11/02 00:42:27;;;;;;;14.15;2.25;;;13.80;99.90;;;;;;4102937;28;20186;-91
2022/11/02 00:44:28;;;;;;;11.48;1.38;;;13.70;99.90;;;;;;4102770;28;20183;-92
2022/11/02 00:46:29;;;;;;;10.95;1.20;;;13.60;99.90;;;;;;4086846;28;20179;-91
2022/11/02 00:48:29;;;;;;;12.77;1.75;;;13.70;99.90;;;;;;4102595;28;20170;-94
2022/11/02 00:50:31;;;;;;;9.52;1.20;;;13.80;99.90;;;;;;4102514;28;20183;-91
2022/11/02 00:52:31;;;;;;;12.77;1.42;;;13.80;99.90;;;;;;4086231;28;20191;-92
2022/11/02 00:54:32;;;;;;;8.05;1.13;;;13.80;99.90;;;;;;4102671;28;20175;-92
2022/11/02 00:56:33;;;;;;;14.02;1.60;;;13.80;99.90;;;;;;4086951;29;20177;-90
2022/11/02 00:58:37;;;;;;;9.48;1.30;;;13.80;99.90;;;;;;4104115;28;20226;-92
2022/11/02 01:00:38;;;;;;;10.48;1.15;;;13.60;99.90;;;;;;4086305;29;20251;-92
2022/11/02 01:02:38;;;;;;;13.90;1.75;;;13.70;99.90;;;;;;4085729;29;20210;-91
2022/11/02 01:04:39;;;;;;;11.18;1.63;;;13.60;99.90;;;;;;4102125;28;20206;-93
2022/11/02 01:06:41;;;;;;;6.97;1.38;;;13.60;99.90;;;;;;4102371;28;20218;-92
2022/11/02 01:08:42;;;;;;;11.43;1.40;;;13.50;99.90;;;;;;4086398;29;20183;-96
2022/11/02 01:10:43;;;;;;;12.50;1.30;;;13.40;99.90;;;;;;4088466;29;20171;-93
2022/11/02 01:12:43;;;;;;;11.35;1.40;;;13.50;99.90;;;;;;4102192;28;20191;-92
2022/11/02 01:14:49;;;;;;;13.80;1.42;;;13.50;99.90;;;;;;4086493;29;20652;-92
2022/11/02 01:16:49;;;;;;;11.18;1.95;;;13.60;99.90;;;;;;4101777;28;20179;-90
2022/11/02 01:18:54;;;;;;;14.82;1.50;;;13.50;99.90;;;;;;4087948;29;20215;-95
2022/11/02 01:20:58;;;;;;;6.75;1.45;;;13.60;99.90;;;;;;4119571;28;20175;-96
2022/11/02 01:22:59;;;;;;;15.10;1.65;;;13.60;99.90;;;;;;4119996;28;20186;-92
2022/11/02 01:24:59;;;;;;;11.77;2.10;;;13.70;99.90;;;;;;4085564;28;20545;-91
2022/11/02 01:27:00;;;;;;;13.00;1.75;;;13.60;99.90;;;;;;4087056;29;20195;-91
2022/11/02 01:29:01;;;;;;;10.43;1.50;;;13.70;99.90;;;;;;4104356;28;20179;-92
2022/11/02 01:31:02;;;;;;;18.85;1.85;;;13.60;99.90;;;;;;4102694;28;20179;-93
2022/11/02 01:33:06;;;;;;;13.18;1.48;;;13.60;99.90;;;;;;4104296;28;20206;-94
2022/11/02 01:35:09;;;;;;;9.65;1.70;;;13.50;99.90;;;;;;4118716;28;20202;-92
2022/11/02 01:37:11;;;;;;;14.25;2.42;;;13.50;99.90;;;;;;4103007;28;20179;-92
2022/11/02 01:39:13;;;;;;;13.57;1.95;;;13.50;99.90;;;;;;4086287;28;20218;-91
2022/11/02 01:41:15;;;;;;;11.02;1.77;;;13.50;99.90;;;;;;4088911;29;20177;-90
2022/11/02 01:43:24;;;;;;;13.10;1.52;;;13.40;99.90;;;;;;4118578;28;20194;-94
2022/11/02 01:45:25;;;;;;;12.30;1.50;;;13.40;99.90;;;;;;4085077;29;20689;-90
2022/11/02 01:47:35;;;;;;;10.98;1.58;;;13.50;99.90;;;;;;4088727;29;20168;-91
2022/11/02 01:49:39;;;;;;;7.47;1.45;;;13.60;99.90;;;;;;4120769;28;20217;-92
2022/11/02 01:51:45;;;;;;;12.68;1.65;;;13.60;99.90;;;;;;4087368;29;20199;-91
2022/11/02 01:53:48;;;;;;;10.32;1.52;;;13.50;99.90;;;;;;4118377;28;20713;-93
2022/11/02 01:55:49;;;;;;;10.63;1.48;;;13.60;99.90;;;;;;4117974;28;20170;-91
2022/11/02 01:58:01;;;;;;;11.18;1.70;;;13.60;99.90;;;;;;4084954;29;20183;-91
2022/11/02 02:00:06;;;;;;;11.82;1.38;;;13.60;99.90;;;;;;4102218;28;20187;-91
2022/11/02 02:02:20;;;;;;;13.95;1.70;;;13.60;99.90;;;;;;4116593;28;20202;-90
2022/11/02 02:04:22;;;;;;;18.38;1.83;;;13.50;99.90;;;;;;4118152;28;20174;-92
2022/11/02 02:06:26;;;;;;;8.55;1.45;;;13.50;99.90;;;;;;4117351;28;20592;-92
2022/11/02 02:08:29;;;;;;;10.80;1.90;;;13.60;99.90;;;;;;4085828;29;20572;-92
2022/11/02 02:10:29;;;;;;;11.98;1.83;;;13.70;99.90;;;;;;4101507;28;20180;-91
2022/11/02 02:12:32;;;;;;;9.30;1.58;;;13.70;99.90;;;;;;4085476;29;20222;-90
2022/11/02 02:14:33;;;;;;;12.95;1.98;;;13.60;99.90;;;;;;4101521;28;20266;-91
2022/11/02 02:16:46;;;;;;;13.45;1.50;;;13.60;99.90;;;;;;4101299;28;20226;-94
2022/11/02 02:18:56;;;;;;;18.10;2.00;;;13.40;99.90;;;;;;4085815;29;20675;-90
2022/11/02 02:21:32;;;;;;;15.20;2.05;;;13.40;99.90;;;;;;4117851;28;20186;-91
2022/11/02 02:23:43;;;;;;;13.38;2.00;;;13.40;99.90;;;;;;4087055;29;20266;-90
2022/11/02 02:26:28;;;;;;;15.55;2.10;;;13.30;99.90;;;;;;4120365;28;20196;-92
2022/11/02 02:28:54;;;;;;;12.75;1.77;;;13.30;99.90;;;;;;4070947;29;20220;-91
2022/11/02 02:31:25;;;;;;;17.98;2.15;;;13.30;99.90;;;;;;4119511;28;20631;-95
2022/11/02 02:33:32;;;;;;;16.73;2.20;;;13.40;99.90;;;;;;4094670;28;20239;-91
2022/11/02 02:35:40;;;;;;;16.70;2.25;;;13.30;99.90;;;;;;4117653;28;20535;-90
2022/11/02 02:37:50;;;;;;;14.45;1.83;;;13.30;99.90;;;;;;4117549;28;20181;-91
2022/11/02 02:40:10;;;;;;;17.48;2.15;;;13.40;99.90;;;;;;4118365;28;20210;-92
2022/11/02 02:42:22;;;;;;;15.05;1.63;;;13.40;99.90;;;;;;4086631;29;20196;-91
2022/11/02 02:44:28;;;;;;;17.15;1.88;;;13.20;99.90;;;;;;4116527;28;20539;-89
2022/11/02 02:47:02;;;;;;;15.95;1.95;;;13.10;99.90;;;;;;4085314;29;20216;-94
2022/11/02 02:49:06;;;;;;;12.93;1.70;;;13.10;99.90;;;;;;4087256;28;20206;-89
2022/11/02 02:51:11;;;;;;;15.18;2.38;;;13.20;99.90;;;;;;4085572;29;20176;-91
2022/11/02 02:53:14;;;;;;;16.38;2.20;;;13.20;99.90;;;;;;4086908;29;20229;-91
2022/11/02 02:55:21;;;;;;;19.65;2.92;;;13.20;99.90;;;;;;4085019;29;20613;-92
2022/11/02 02:57:28;;;;;;;20.38;3.03;;;13.30;99.90;;;;;;4086518;29;20248;-92
2022/11/02 02:59:38;;;;;;;16.50;1.80;;;13.30;99.90;;;;;;4102111;28;20210;-93
2022/11/02 03:01:42;;;;;;;16.33;1.85;;;13.20;99.90;;;;;;4089840;28;20219;-92
2022/11/02 03:03:46;;;;;;;17.05;2.25;;;13.20;99.90;;;;;;4086990;29;20201;-94
2022/11/02 03:06:14;;;;;;;21.83;2.63;;;13.10;99.90;;;;;;4104550;28;20171;-93
2022/11/02 03:08:23;;;;;;;13.30;1.73;;;13.20;99.90;;;;;;4119177;28;20264;-94
2022/11/02 03:10:50;;;;;;;11.13;1.88;;;13.20;99.90;;;;;;4071259;28;20692;-92
2022/11/02 03:13:22;;;;;;;12.45;1.83;;;13.20;99.90;;;;;;4117679;28;20190;-93
2022/11/02 03:15:40;;;;;;;22.05;1.88;;;13.20;99.90;;;;;;4117479;28;20356;-91
2022/11/02 03:17:58;;;;;;;15.38;1.90;;;13.30;99.90;;;;;;4084765;29;20180;-90
2022/11/02 03:20:15;;;;;;;11.20;2.00;;;13.30;99.90;;;;;;4118746;28;20197;-91
2022/11/02 03:22:49;;;;;;;12.55;1.90;;;13.10;99.90;;;;;;4119365;28;20689;-90
2022/11/02 03:25:18;;;;;;;12.80;1.70;;;13.00;99.90;;;;;;4086694;29;20275;-92
2022/11/02 03:27:38;;;;;;;16.27;1.73;;;13.00;99.90;;;;;;4085902;29;20568;-94
2022/11/02 03:30:08;;;;;;;17.25;2.13;;;13.10;99.90;;;;;;4116021;28;20638;-93
2022/11/02 03:32:19;;;;;;;17.52;1.88;;;13.10;99.90;;;;;;4100374;28;20198;-92
2022/11/02 03:34:37;;;;;;;19.50;2.38;;;13.00;99.90;;;;;;4118382;28;20217;-91
2022/11/02 03:36:50;;;;;;;14.52;2.10;;;13.00;99.90;;;;;;4118247;28;20189;-91
2022/11/02 03:38:57;;;;;;;15.70;2.05;;;13.10;99.90;;;;;;4120770;28;20734;-91
2022/11/02 03:41:00;;;;;;;14.27;1.85;;;13.00;99.90;;;;;;4089562;29;20175;-91
2022/11/02 03:43:04;;;;;;;15.80;2.25;;;13.00;99.90;;;;;;4088102;29;20226;-92
2022/11/02 03:45:35;;;;;;;17.45;1.92;;;12.90;99.90;;;;;;4085705;29;20167;-92
2022/11/02 03:47:37;;;;;;;19.17;2.80;;;12.90;99.90;;;;;;4084855;29;20185;-93
2022/11/02 03:49:44;;;;;;;19.05;2.28;;;12.90;99.90;;;;;;4085233;29;20168;-92
2022/11/02 03:51:48;;;;;;;18.30;2.28;;;12.90;99.90;;;;;;4102765;28;20206;-93
2022/11/02 03:54:12;;;;;;;20.10;2.10;;;13.00;99.90;;;;;;4086059;29;20518;-92
2022/11/02 03:56:36;;;;;;;13.15;1.90;;;13.00;99.90;;;;;;4115842;28;20194;-93
2022/11/02 03:58:38;;;;;;;16.17;1.92;;;12.90;99.90;;;;;;4083972;29;20219;-93
2022/11/02 04:00:47;;;;;;;19.80;2.08;;;13.00;99.90;;;;;;4102310;28;20287;-91
2022/11/02 04:02:52;;;;;;;19.23;2.53;;;12.90;99.90;;;;;;4086804;29;20684;-94
2022/11/02 04:04:53;;;;;;;15.68;2.08;;;12.80;99.90;;;;;;4118899;28;20174;-91
2022/11/02 04:06:58;;;;;;;22.70;3.15;;;12.90;99.90;;;;;;4101735;28;20627;-93
2022/11/02 04:08:59;;;;;;;17.30;2.63;;;12.80;99.90;;;;;;4116449;28;20210;-90
2022/11/02 04:15:41;;;;;;;13.23;1.90;;;12.70;99.90;;;;;;4117247;28;20170;-91
2022/11/02 04:20:01;;;;;;;13.75;1.80;;;13.00;99.90;;;;;;4120100;28;20851;-91
2022/11/02 04:26:43;;;;;;;16.30;1.98;;;12.80;99.90;;;;;;4119985;28;20194;-94
2022/11/02 04:28:44;;;;;;;15.55;2.00;;;12.80;99.90;;;;;;4089727;28;20231;-94
2022/11/02 04:30:46;;;;;;;11.60;1.73;;;12.80;99.90;;;;;;4104359;28;20171;-94
2022/11/02 04:35:15;;;;;;;13.63;2.10;;;12.80;99.90;;;;;;4118962;28;20170;-93
2022/11/02 04:39:45;;;;;;;24.23;2.58;;;12.80;99.90;;;;;;4096187;28;20623;-91
2022/11/02 04:41:46;;;;;;;18.40;2.60;;;12.70;99.90;;;;;;4121577;28;20190;-92
2022/11/02 04:44:04;;;;;;;23.77;2.22;;;12.60;99.90;;;;;;4104369;28;20190;-92
2022/11/02 04:46:05;;;;;;;18.58;1.95;;;12.60;99.90;;;;;;4086594;29;20206;-92
2022/11/02 04:48:08;;;;;;;13.02;2.00;;;12.60;99.90;;;;;;4102420;28;20301;-95
2022/11/02 04:50:10;;;;;;;13.90;2.17;;;12.50;99.90;;;;;;4118297;28;20181;-93
2022/11/02 04:52:11;;;;;;;16.05;1.90;;;12.40;99.90;;;;;;4119154;28;20213;-94
2022/11/02 04:54:17;;;;;;;21.92;2.33;;;12.40;99.90;;;;;;4102275;28;20183;-92
2022/11/02 04:56:19;;;;;;;15.75;1.88;;;12.30;99.90;;;;;;4119615;28;20181;-93
2022/11/02 04:58:21;;;;;;;24.52;2.42;;;12.40;99.90;;;;;;4104216;28;20225;-91
2022/11/02 05:00:22;;;;;;;17.95;2.05;;;12.40;99.90;;;;;;4086918;29;20171;-92
2022/11/02 05:02:24;;;;;;;10.93;1.63;;;12.40;99.90;;;;;;4089049;29;20203;-91
2022/11/02 05:04:27;;;;;;;14.43;1.90;;;12.50;99.90;;;;;;4088957;29;20183;-93
2022/11/02 05:06:29;;;;;;;21.33;2.30;;;12.40;99.90;;;;;;4088085;29;20274;-94
2022/11/02 05:08:30;;;;;;;11.38;1.30;;;12.40;99.90;;;;;;4086640;29;20187;-91
2022/11/02 05:10:31;;;;;;;16.58;2.17;;;12.40;99.90;;;;;;4101714;28;20178;-93
2022/11/02 05:12:32;;;;;;;14.07;1.70;;;12.20;99.90;;;;;;4086965;28;20722;-92
2022/11/02 05:14:34;;;;;;;14.35;1.95;;;12.20;99.90;;;;;;4087882;28;20199;-92
2022/11/02 05:16:36;;;;;;;15.52;2.28;;;12.10;99.90;;;;;;4119328;28;20182;-93
2022/11/02 05:18:37;;;;;;;23.92;2.10;;;12.20;99.90;;;;;;4087325;29;20246;-90
2022/11/02 05:20:37;;;;;;;20.83;1.98;;;12.20;99.90;;;;;;4103043;28;20171;-92
2022/11/02 05:22:41;;;;;;;13.88;1.80;;;12.30;99.90;;;;;;4103930;28;20588;-93
2022/11/02 05:24:42;;;;;;;11.65;1.92;;;12.20;99.90;;;;;;4118889;28;20269;-96
2022/11/02 05:26:43;;;;;;;20.15;2.28;;;12.20;99.90;;;;;;4087477;29;20175;-92
2022/11/02 05:28:43;;;;;;;12.52;1.55;;;12.20;99.90;;;;;;4086004;28;20242;-92
2022/11/02 05:30:44;;;;;;;13.52;2.30;;;12.20;99.90;;;;;;4090910;28;20191;-93
2022/11/02 05:32:45;;;;;;;15.52;1.88;;;12.30;99.90;;;;;;4087546;29;20270;-91
2022/11/02 05:34:47;;;;;;;14.35;1.88;;;12.20;99.90;;;;;;4104564;28;20175;-92
2022/11/02 05:36:48;;;;;;;18.15;1.67;;;12.10;99.90;;;;;;4088263;29;20230;-93
2022/11/02 05:38:53;;;;;;;15.32;2.00;;;12.10;99.90;;;;;;4088803;29;20309;-92
2022/11/02 05:40:56;;;;;;;17.85;2.40;;;12.00;99.90;;;;;;4086310;29;20179;-92
2022/11/02 05:43:00;;;;;;;19.95;2.42;;;12.10;99.90;;;;;;4120821;28;20202;-92
2022/11/02 05:45:02;;;;;;;17.15;2.25;;;12.20;99.90;;;;;;4088702;29;20175;-93
2022/11/02 05:47:04;;;;;;;23.20;3.47;;;12.10;99.90;;;;;;4086827;29;20701;-93
2022/11/02 05:49:04;;;;;;;16.08;2.10;;;12.10;99.90;;;;;;4103754;28;20175;-92
2022/11/02 05:51:05;;;;;;;20.60;2.70;;;12.10;99.90;;;;;;4086197;29;20259;-92
2022/11/02 05:53:06;;;;;;;14.40;2.05;;;11.90;99.90;;;;;;4102556;28;20203;-92
2022/11/02 05:55:07;;;;;;;14.05;1.85;;;11.90;99.90;;;;;;4104408;28;20225;-93
2022/11/02 05:57:08;;;;;;;17.30;2.10;;;12.00;99.90;;;;;;4120738;28;20171;-93
2022/11/02 05:59:09;;;;;;;14.85;2.08;;;11.90;99.90;;;;;;4102025;28;20215;-92
2022/11/02 06:01:10;;;;;;;14.52;2.08;;;11.90;99.90;;;;;;4117643;28;20229;-96
2022/11/02 06:03:10;;;;;;;19.73;2.58;;;11.90;99.90;;;;;;4086933;29;20259;-94
2022/11/02 06:05:12;;;;;;;21.33;2.40;;;12.00;99.90;;;;;;4102622;28;20219;-93
2022/11/02 06:07:12;;;;;;;19.85;2.58;;;11.90;99.90;;;;;;4118333;28;20197;-95
2022/11/02 06:09:13;;;;;;;17.63;1.92;;;11.90;99.90;;;;;;4102681;28;20567;-93
2022/11/02 06:11:14;;;;;;;20.58;2.67;;;11.90;99.90;;;;;;4087353;28;20176;-92
2022/11/02 06:13:15;;;;;;;22.55;2.72;;;11.80;99.90;;;;;;4085478;28;20286;-93
2022/11/02 06:15:16;;;;;;;21.00;2.78;;;11.90;99.90;;;;;;4084905;29;20231;-93
2022/11/02 06:17:17;;;;;;;18.85;2.67;;;12.10;99.90;;;;;;4101817;28;20198;-92
2022/11/02 06:19:18;;;;;;;14.77;2.33;;;12.00;99.90;;;;;;4085823;29;20222;-92
2022/11/02 06:21:19;;;;;;;17.88;2.30;;;11.90;99.90;;;;;;4100889;28;20174;-93
2022/11/02 06:23:20;;;;;;;21.98;2.58;;;11.90;99.90;;;;;;4118905;28;20192;-92
2022/11/02 06:25:20;;;;;;;19.77;2.28;;;11.80;99.90;;;;;;4102779;28;20182;-93
2022/11/02 06:27:21;;;;;;;24.02;2.25;;;11.80;99.90;;;;;;4085065;29;20220;-92
2022/11/02 06:29:22;;;;;;;24.10;2.92;;;11.80;99.90;;;;;;4084691;29;20180;-91
2022/11/02 06:31:23;;;;;;;14.95;2.13;;;11.80;99.90;;;;;;4100227;28;20178;-93
2022/11/02 06:33:23;;;;;;;15.25;2.55;;;11.80;99.90;;;;;;4101645;28;20286;-92
2022/11/02 06:35:24;;;;;;;19.65;2.90;;;11.80;99.90;;;;;;4116813;28;20224;-92
2022/11/02 06:37:25;;;;;;;21.67;2.92;;;11.80;99.90;;;;;;4100291;28;20199;-92
2022/11/02 06:39:26;;;;;;;22.92;2.60;;;11.80;99.90;;;;;;4116599;28;20217;-95
2022/11/02 06:41:26;;;;;;;16.17;3.17;;;11.80;99.90;;;;;;4084886;29;20186;-93
2022/11/02 06:43:27;;;;;;;19.38;2.42;;;11.70;99.90;;;;;;4085244;28;20168;-92
2022/11/02 06:45:28;;;;;;;22.88;3.15;;;11.70;99.90;;;;;;4085127;28;20179;-92
2022/11/02 06:47:33;;;;;;;18.35;2.70;;;11.70;99.90;;;;;;4085171;29;20175;-91
2022/11/02 06:49:33;;;;;;;26.08;3.03;;;11.70;99.90;;;;;;4085863;29;20180;-92
2022/11/02 06:51:34;;;;;;;21.92;2.17;;;11.70;99.90;;;;;;4084556;29;20183;-91
2022/11/02 06:53:35;;;;;;;20.73;2.40;;;11.70;99.90;;;;;;4085166;29;20190;-92
2022/11/02 06:55:36;;;;;;;26.67;2.92;;;11.60;99.90;;;;;;4115974;28;20166;-91
2022/11/02 06:57:37;;;;;;;17.70;2.00;;;11.70;99.90;;;;;;4084987;29;20195;-91
2022/11/02 06:59:38;;;;;;;21.33;2.60;;;11.70;99.90;;;;;;4084100;29;20303;-91
2022/11/02 07:01:39;;;;;;;20.85;2.55;;;11.80;99.90;;;;;;4086577;28;20208;-91
2022/11/02 07:03:39;;;;;;;23.02;2.85;;;11.80;99.90;;;;;;4100924;28;20643;-92
2022/11/02 07:05:40;;;;;;;23.83;2.83;;;11.80;99.90;;;;;;4101607;28;20238;-92
2022/11/02 07:07:41;;;;;;;19.65;2.70;;;11.70;99.90;;;;;;4117246;28;20174;-92
2022/11/02 07:09:42;;;;;;;24.88;2.63;;;11.80;99.90;;;;;;4101039;28;20187;-93
2022/11/02 07:11:42;;;;;;;15.75;2.15;;;11.80;99.90;;;;;;4084884;29;20203;-92
2022/11/02 07:13:43;;;;;;;24.38;2.70;;;11.80;99.90;;;;;;4099987;28;20182;-92
2022/11/02 07:15:44;;;;;;;26.38;2.83;;;11.70;99.90;;;;;;4084067;29;20318;-92
2022/11/02 07:17:45;;;;;;;11.52;2.45;;;11.70;99.90;;;;;;4101592;28;20179;-92
2022/11/02 07:19:46;;;;;;;28.75;2.42;;;11.80;99.90;;;;;;4101437;28;20214;-91
2022/11/02 07:21:46;;;;;;;18.80;2.30;;;11.90;99.90;;;;;;4100159;28;20206;-92
2022/11/02 07:23:47;;;;;;;23.83;2.78;;;12.00;99.90;;;;;;4116182;28;20532;-92
2022/11/02 07:25:48;;;;;;;20.80;2.83;;;11.90;99.90;;;;;;4102553;28;20171;-93
2022/11/02 07:27:49;;;;;;;24.40;2.63;;;11.90;99.90;;;;;;4118845;28;20178;-95
2022/11/02 07:29:50;;;;;;;16.33;2.25;;;11.90;99.90;;;;;;4117458;28;20170;-93
2022/11/02 07:31:50;;;;;;;20.15;2.72;;;12.00;99.90;;;;;;4101504;28;20237;-92
2022/11/02 07:33:51;;;;;;;20.58;2.35;;;12.00;99.90;;;;;;4116632;28;20184;-92
2022/11/02 07:35:52;;;;;;;19.80;2.88;;;12.00;99.90;;;;;;4101021;28;20636;-92
2022/11/02 07:38:01;;;;;;;22.38;2.75;;;12.20;99.90;;;;;;4084995;29;20183;-92
2022/11/02 07:40:04;;;;;;;20.58;2.90;;;12.20;99.90;;;;;;4116613;28;20177;-93
2022/11/02 07:42:06;;;;;;;20.52;2.47;;;12.30;99.90;;;;;;4085135;29;20198;-92
2022/11/02 07:44:07;;;;;;;25.30;2.60;;;12.20;99.90;;;;;;4100822;28;20175;-93
2022/11/02 07:46:19;;;;;;;17.42;2.47;;;12.20;99.90;;;;;;4087861;29;20175;-92
2022/11/02 07:48:20;;;;;;;19.63;2.95;;;12.40;99.90;;;;;;4084115;28;20251;-95
2022/11/02 07:50:23;;;;;;;25.42;3.33;;;12.50;99.90;;;;;;4100837;28;20171;-92
2022/11/02 07:52:24;;;;;;;18.23;2.53;;;12.80;99.90;;;;;;4085757;29;20204;-92
2022/11/02 07:54:24;;;;;;;15.45;2.42;;;12.80;99.90;;;;;;4088851;28;20668;-93
2022/11/02 07:56:25;;;;;;;22.05;3.15;;;12.70;99.90;;;;;;4103256;28;20572;-92
2022/11/02 07:58:26;;;;;;;18.40;2.63;;;12.70;99.90;;;;;;4089011;28;20196;-93
2022/11/02 08:00:32;;;;;;;21.42;2.78;;;12.70;99.90;;;;;;4103502;28;20183;-92
2022/11/02 08:02:33;;;;;;;24.30;2.97;;;12.70;99.90;;;;;;4088146;29;20238;-94
2022/11/02 08:04:34;;;;;;;21.58;2.45;;;12.80;99.90;;;;;;4089592;29;20184;-92
2022/11/02 08:06:35;;;;;;;18.33;2.80;;;13.00;99.90;;;;;;4104435;28;20186;-96
2022/11/02 08:08:35;;;;;;;21.95;2.90;;;13.40;99.90;;;;;;4105252;28;20252;-92
2022/11/02 08:10:37;;;;;;;20.13;2.90;;;13.40;99.90;;;;;;4119758;28;20174;-93
2022/11/02 08:12:37;;;;;;;20.35;3.00;;;13.70;99.90;;;;;;4121342;28;20194;-96
2022/11/02 08:14:38;;;;;;;17.33;2.58;;;14.20;99.90;;;;;;4102519;28;20529;-94
2022/11/02 08:16:39;;;;;;;24.27;2.50;;;14.50;99.90;;;;;;4118825;28;20182;-91
2022/11/02 08:18:40;;;;;;;28.23;3.38;;;14.70;99.90;;;;;;4102723;28;20698;-93
2022/11/02 08:20:42;;;;;;;21.45;3.30;;;14.90;99.90;;;;;;4088676;29;20179;-93
2022/11/02 08:22:42;;;;;;;25.25;2.90;;;15.00;99.90;;;;;;4119385;28;20202;-93
2022/11/02 08:24:43;;;;;;;21.65;3.05;;;14.90;99.90;;;;;;4103223;28;20210;-95
2022/11/02 08:26:44;;;;;;;22.35;3.03;;;14.50;99.90;;;;;;4118761;28;20277;-91
2022/11/02 08:28:44;;;;;;;27.38;2.65;;;14.10;99.90;;;;;;4102694;28;20207;-93
2022/11/02 08:30:45;;;;;;;20.10;3.17;;;14.00;99.90;;;;;;4118646;28;20273;-93
2022/11/02 08:32:46;;;;;;;21.65;2.65;;;13.80;99.90;;;;;;4102571;28;20191;-93
2022/11/02 08:34:49;;;;;;;23.17;3.17;;;13.60;99.90;;;;;;4086633;29;20176;-94
2022/11/02 08:36:50;;;;;;;24.85;3.28;;;13.60;99.90;;;;;;4118448;28;20204;-92
2022/11/02 08:38:51;;;;;;;21.58;3.03;;;13.70;99.90;;;;;;4086683;28;20739;-92
2022/11/02 08:40:53;;;;;;;21.15;2.67;;;13.90;99.90;;;;;;4086816;29;20183;-96
2022/11/02 08:42:56;;;;;;;24.05;3.25;;;14.30;99.90;;;;;;4118500;28;20202;-93
2022/11/02 08:44:57;;;;;;;17.20;3.33;;;14.50;99.90;;;;;;4118055;28;20166;-92
2022/11/02 08:46:57;;;;;;;22.80;3.33;;;14.70;99.90;;;;;;4086732;29;20176;-92
2022/11/02 08:48:58;;;;;;;18.15;3.20;;;15.40;99.90;;;;;;4087166;28;20250;-92
2022/11/02 08:50:59;;;;;;;21.00;4.25;;;15.60;99.90;;;;;;4103059;28;20662;-91
2022/11/02 08:53:00;;;;;;;15.52;3.15;;;15.50;99.90;;;;;;4087044;29;20199;-95
2022/11/02 08:55:01;;;;;;;14.30;2.45;;;15.50;99.90;;;;;;4086597;29;20624;-92
2022/11/02 08:57:02;;;;;;;21.83;3.22;;;15.50;99.90;;;;;;4118244;28;20181;-93
2022/11/02 08:59:03;;;;;;;17.25;2.72;;;15.80;99.90;;;;;;4102077;28;20245;-91
2022/11/02 09:01:04;;;;;;;17.33;3.30;;;16.00;99.90;;;;;;4118794;28;20185;-92
2022/11/02 09:03:11;;;;;;;20.00;3.10;;;16.00;99.90;;;;;;4102794;28;20190;-93
2022/11/02 09:05:11;;;;;;;14.57;2.67;;;15.70;99.90;;;;;;4118254;28;20528;-92
2022/11/02 09:07:13;;;;;;;17.13;2.75;;;15.40;99.90;;;;;;4102891;28;20206;-92
2022/11/02 09:09:14;;;;;;;17.75;2.38;;;15.40;99.90;;;;;;4117497;28;20245;-92
2022/11/02 09:11:15;;;;;;;24.63;3.72;;;15.30;99.90;;;;;;4102076;28;20178;-92
2022/11/02 09:13:19;;;;;;;22.05;3.03;;;15.20;99.90;;;;;;4087118;29;20719;-92
2022/11/02 09:15:20;;;;;;;21.73;2.83;;;15.30;99.90;;;;;;4118697;28;20560;-93
2022/11/02 09:17:21;;;;;;;16.98;2.60;;;15.40;99.90;;;;;;4086607;29;20231;-94
2022/11/02 09:19:21;;;;;;;16.85;2.60;;;15.60;99.90;;;;;;4085780;28;20215;-93
2022/11/02 09:21:22;;;;;;;24.08;3.67;;;15.60;99.90;;;;;;4086026;28;20187;-92
2022/11/02 09:23:23;;;;;;;19.70;2.90;;;15.50;99.90;;;;;;4101996;28;20182;-94
2022/11/02 09:25:23;;;;;;;19.17;3.15;;;15.30;99.90;;;;;;4102120;28;20595;-92
2022/11/02 09:27:24;;;;;;;30.75;3.97;;;15.20;99.90;;;;;;4087254;29;20186;-95
2022/11/02 09:29:25;;;;;;;17.88;2.70;;;15.00;99.90;;;;;;4086233;29;20175;-91
2022/11/02 09:31:28;;;;;;;15.65;2.60;;;15.20;99.90;;;;;;4102380;28;20584;-91
2022/11/02 09:33:29;;;;;;;35.25;3.30;;;15.00;99.90;;;;;;4101588;28;20246;-91
2022/11/02 09:35:32;;;;;;;23.40;3.15;;;14.60;99.90;;;;;;4101541;28;20179;-93
2022/11/02 09:37:33;;;;;;;19.83;2.95;;;14.60;99.90;;;;;;4087024;29;20252;-96
2022/11/02 09:39:34;;;;;;;22.45;3.10;;;14.50;99.90;;;;;;4085729;29;20226;-93
2022/11/02 09:42:05;;;;;;;17.83;2.97;;;14.50;99.90;;;;;;4085204;29;20171;-93
2022/11/02 09:44:26;;;;;;;24.30;2.83;;;14.50;99.90;;;;;;4117368;28;20179;-92
2022/11/02 09:46:32;;;;;;;19.58;2.80;;;14.40;99.90;;;;;;4101943;28;20194;-92
2022/11/02 09:48:52;;;;;;;19.10;2.50;;;14.50;99.90;;;;;;4085295;29;20182;-92
2022/11/02 09:51:10;;;;;;;21.80;3.17;;;14.50;99.90;;;;;;4085448;29;20203;-93
2022/11/02 09:53:17;;;;;;;25.73;3.20;;;14.50;99.90;;;;;;4086858;29;20187;-91
2022/11/02 09:55:24;;;;;;;18.17;3.50;;;14.30;99.90;;;;;;4085231;29;20250;-91
2022/11/02 09:57:28;;;;;;;19.80;3.05;;;14.40;99.90;;;;;;4085080;29;20203;-93
2022/11/02 09:59:29;;;;;;;26.13;3.17;;;14.60;99.90;;;;;;4102119;28;20211;-91
2022/11/02 10:02:04;;;;;;;20.92;3.10;;;14.80;99.90;;;;;;4101730;28;20221;-93
2022/11/02 10:04:25;;;;;;;23.77;3.22;;;14.90;99.90;;;;;;4116970;28;20186;-92
2022/11/02 10:06:29;;;;;;;18.58;3.40;;;15.00;99.90;;;;;;4116932;28;20177;-91
2022/11/02 10:08:52;;;;;;;24.65;3.33;;;15.00;99.90;;;;;;4118767;28;20217;-92
2022/11/02 10:11:11;;;;;;;23.55;3.30;;;15.00;99.90;;;;;;4117866;28;20222;-92
2022/11/02 10:13:27;;;;;;;23.98;2.85;;;14.80;99.90;;;;;;4116801;28;20745;-91
2022/11/02 10:15:39;;;;;;;30.40;3.15;;;14.60;99.90;;;;;;4116381;28;20183;-91
2022/11/02 10:17:42;;;;;;;18.33;2.67;;;14.60;99.90;;;;;;4084712;29;20655;-92
2022/11/02 10:19:50;;;;;;;19.05;2.72;;;14.80;99.90;;;;;;4085026;29;20219;-91
2022/11/02 10:21:56;;;;;;;24.58;3.38;;;15.00;99.90;;;;;;4117054;28;20283;-93
2022/11/02 10:24:02;;;;;;;16.63;2.70;;;15.10;99.90;;;;;;4086162;29;20187;-92
2022/11/02 10:26:03;;;;;;;21.38;2.50;;;15.20;99.90;;;;;;4116774;28;20174;-91
2022/11/02 10:28:16;;;;;;;24.58;3.03;;;15.40;99.90;;;;;;4102325;28;20330;-91
2022/11/02 10:30:19;;;;;;;22.17;3.00;;;15.50;99.90;;;;;;4118866;28;20181;-90
2022/11/02 10:32:20;;;;;;;17.88;2.53;;;15.30;99.90;;;;;;4117900;28;20225;-91
2022/11/02 10:34:28;;;;;;;27.67;4.10;;;15.40;99.90;;;;;;4118007;28;20174;-92
2022/11/02 10:36:37;;;;;;;22.90;2.88;;;15.40;99.90;;;;;;4084609;29;20179;-91
2022/11/02 10:38:55;;;;;;;20.40;2.88;;;15.30;99.90;;;;;;4118220;28;20206;-91
2022/11/02 10:41:43;;;;;;;20.20;2.65;;;15.20;99.90;;;;;;4116487;28;20182;-91
2022/11/02 10:44:25;;;;;;;25.83;2.80;;;15.10;99.90;;;;;;4086244;29;20596;-92
2022/11/02 10:46:37;;;;;;;17.58;2.58;;;15.30;99.90;;;;;;4101576;28;20174;-92
2022/11/02 10:48:55;;;;;;;19.00;2.58;;;15.30;99.90;;;;;;4108857;28;20182;-92
2022/11/02 10:51:04;;;;;;;14.85;2.65;;;15.60;99.90;;;;;;4118523;28;20174;-92
2022/11/02 10:53:12;;;;;;;19.13;3.13;;;15.60;99.90;;;;;;4101105;28;20713;-93
2022/11/02 10:55:28;;;;;;;25.13;2.90;;;15.90;99.90;;;;;;4116784;28;20196;-92
2022/11/02 10:57:31;;;;;;;21.25;2.38;;;16.10;99.90;;;;;;4120285;28;20280;-92
2022/11/02 10:59:32;;;;;;;22.50;2.45;;;16.10;99.90;;;;;;4084252;29;20229;-92
2022/11/02 11:01:32;;;;;;;21.98;2.92;;;16.20;99.90;;;;;;4102857;28;20654;-91